Time,TemperatureF,DewpointF,PressureIn,WindDirection,WindDirectionDegrees,WindSpeedMPH,WindSpeedGustMPH,Humidity,HourlyPrecipIn,Conditions,Clouds,dailyrainin,SolarRadiationWatts/m^2,SoftwareType,DateUTC
2013-08-26 00:05:00,66.0,53.0,-100.00,NW,319,6.0,14.0,62,0.00,,,0.00,0.000000,,2013-08-26 04:05:00,
2013-08-26 00:14:00,66.0,53.0,-100.00,NW,319,6.0,14.0,62,0.00,,,0.00,0.000000,,2013-08-26 04:14:00,
2013-08-26 00:44:00,66.0,55.0,-100.00,NNW,330,8.0,15.0,67,0.00,,,0.00,0.000000,,2013-08-26 04:44:00,
2013-08-26 00:53:00,66.0,55.0,-100.00,NNW,330,8.0,15.0,67,0.00,,,0.00,0.000000,,2013-08-26 04:53:00,
2013-08-26 01:03:00,66.0,55.0,-100.00,NNW,330,8.0,15.0,67,0.00,,,0.00,0.000000,,2013-08-26 05:03:00,
2013-08-26 01:13:00,66.0,55.0,-100.00,NNW,330,8.0,15.0,67,0.00,,,0.00,0.000000,,2013-08-26 05:13:00,
2013-08-26 01:44:00,66.0,55.0,-100.00,North,354,8.0,17.0,68,0.00,,,0.00,0.000000,,2013-08-26 05:44:00,
2013-08-26 01:52:00,66.0,55.0,-100.00,North,354,8.0,17.0,68,0.00,,,0.00,0.000000,,2013-08-26 05:52:00,
2013-08-26 02:02:00,66.0,55.0,-100.00,North,354,8.0,17.0,68,0.00,,,0.00,0.000000,,2013-08-26 06:02:00,
2013-08-26 02:12:00,66.0,55.0,-100.00,North,354,8.0,17.0,68,0.00,,,0.00,0.000000,,2013-08-26 06:12:00,
2013-08-26 02:42:00,65.0,56.0,-100.00,North,355,7.0,15.0,73,0.00,,,0.00,0.000000,,2013-08-26 06:42:00,
2013-08-26 02:52:00,65.0,56.0,-100.00,North,355,7.0,15.0,73,0.00,,,0.00,0.000000,,2013-08-26 06:52:00,
2013-08-26 03:02:00,65.0,56.0,-100.00,North,355,7.0,15.0,73,0.00,,,0.00,0.000000,,2013-08-26 07:02:00,
2013-08-26 03:12:00,65.0,56.0,-100.00,North,355,7.0,15.0,73,0.00,,,0.00,0.000000,,2013-08-26 07:12:00,
2013-08-26 03:42:00,63.0,55.0,-100.00,NNW,346,7.0,14.0,76,0.00,,,0.00,0.000000,,2013-08-26 07:42:00,
2013-08-26 03:52:00,63.0,55.0,-100.00,NNW,346,7.0,14.0,76,0.00,,,0.00,0.000000,,2013-08-26 07:52:00,
2013-08-26 04:02:00,63.0,55.0,-100.00,NNW,346,7.0,14.0,76,0.00,,,0.00,0.000000,,2013-08-26 08:02:00,
2013-08-26 04:12:00,63.0,55.0,-100.00,NNW,346,7.0,14.0,76,0.00,,,0.00,0.000000,,2013-08-26 08:12:00,
2013-08-26 04:42:00,64.0,56.0,-100.00,North,356,8.0,17.0,75,0.00,,,0.00,0.000000,,2013-08-26 08:42:00,
2013-08-26 04:52:00,64.0,56.0,-100.00,North,356,8.0,17.0,75,0.00,,,0.00,0.000000,,2013-08-26 08:52:00,
2013-08-26 05:02:00,64.0,56.0,-100.00,North,356,8.0,17.0,75,0.00,,,0.00,0.000000,,2013-08-26 09:02:00,
2013-08-26 05:11:00,64.0,56.0,-100.00,North,356,8.0,17.0,75,0.00,,,0.00,0.000000,,2013-08-26 09:11:00,
2013-08-26 05:44:00,63.0,55.0,-100.00,North,8,8.0,15.0,76,0.00,,,0.00,0.000000,,2013-08-26 09:44:00,
2013-08-26 05:54:00,63.0,55.0,-100.00,North,8,8.0,15.0,76,0.00,,,0.00,0.000000,,2013-08-26 09:54:00,
2013-08-26 06:03:00,63.0,55.0,-100.00,North,8,8.0,15.0,76,0.00,,,0.00,0.000000,,2013-08-26 10:03:00,
2013-08-26 06:13:00,63.0,55.0,-100.00,North,8,8.0,15.0,76,0.00,,,0.00,0.000000,,2013-08-26 10:13:00,
2013-08-26 06:42:00,62.0,54.0,-100.00,North,357,8.0,14.0,76,0.00,,,-99.99,0.000000,,2013-08-26 10:42:00,
2013-08-26 06:52:00,62.0,54.0,-100.00,North,357,8.0,14.0,76,0.00,,,-99.99,0.000000,,2013-08-26 10:52:00,
2013-08-26 07:02:00,62.0,54.0,-100.00,North,357,8.0,14.0,76,0.00,,,-99.99,0.000000,,2013-08-26 11:02:00,
2013-08-26 07:12:00,62.0,54.0,-100.00,North,357,8.0,14.0,76,0.00,,,-99.99,0.000000,,2013-08-26 11:12:00,
2013-08-26 07:42:00,63.0,55.0,-100.00,North,3,8.0,16.0,74,0.00,,,0.00,17.000000,,2013-08-26 11:42:00,
2013-08-26 07:52:00,63.0,55.0,-100.00,North,3,8.0,16.0,74,0.00,,,0.00,17.000000,,2013-08-26 11:52:00,
2013-08-26 08:01:00,63.0,55.0,-100.00,North,3,8.0,16.0,74,0.00,,,0.00,17.000000,,2013-08-26 12:01:00,
2013-08-26 08:12:00,63.0,55.0,-100.00,North,3,8.0,16.0,74,0.00,,,0.00,17.000000,,2013-08-26 12:12:00,
2013-08-26 08:42:00,66.0,56.0,-100.00,North,3,8.0,19.0,69,0.00,,,0.00,135.000000,,2013-08-26 12:42:00,
2013-08-26 08:52:00,66.0,56.0,-100.00,North,3,8.0,19.0,69,0.00,,,0.00,135.000000,,2013-08-26 12:52:00,
2013-08-26 09:02:00,66.0,56.0,-100.00,North,3,8.0,19.0,69,0.00,,,0.00,135.000000,,2013-08-26 13:02:00,
2013-08-26 09:12:00,66.0,56.0,-100.00,North,3,8.0,19.0,69,0.00,,,0.00,135.000000,,2013-08-26 13:12:00,
2013-08-26 09:42:00,67.0,56.0,-100.00,North,0,8.0,17.0,67,0.00,,,0.00,217.000000,,2013-08-26 13:42:00,
2013-08-26 09:52:00,67.0,56.0,-100.00,North,0,8.0,17.0,67,0.00,,,0.00,217.000000,,2013-08-26 13:52:00,
2013-08-26 10:02:00,67.0,56.0,-100.00,North,0,8.0,17.0,67,0.00,,,0.00,217.000000,,2013-08-26 14:02:00,
2013-08-26 10:11:00,67.0,56.0,-100.00,North,0,8.0,17.0,67,0.00,,,0.00,217.000000,,2013-08-26 14:11:00,
2013-08-26 10:42:00,69.0,56.0,-100.00,North,8,6.0,15.0,64,0.00,,,0.00,359.000000,,2013-08-26 14:42:00,
2013-08-26 10:52:00,69.0,56.0,-100.00,North,8,6.0,15.0,64,0.00,,,0.00,359.000000,,2013-08-26 14:52:00,
2013-08-26 11:01:00,69.0,56.0,-100.00,North,8,6.0,15.0,64,0.00,,,0.00,359.000000,,2013-08-26 15:01:00,
2013-08-26 11:12:00,69.0,56.0,-100.00,North,8,6.0,15.0,64,0.00,,,0.00,359.000000,,2013-08-26 15:12:00,
2013-08-26 11:16:00,73.0,61.0,-100.00,North,354,9.0,14.0,65,0.00,,,0.00,451.000000,,2013-08-26 15:16:00,
2013-08-26 11:59:00,73.0,61.0,-100.00,North,354,9.0,14.0,65,0.00,,,0.00,451.000000,,2013-08-26 15:59:00,
2013-08-26 12:10:00,73.0,61.0,-100.00,North,354,9.0,14.0,65,0.00,,,0.00,451.000000,,2013-08-26 16:10:00,
2013-08-26 12:48:00,75.0,60.0,-100.00,North,357,7.0,14.0,60,0.00,,,0.00,483.000000,,2013-08-26 16:48:00,
2013-08-26 12:59:00,75.0,60.0,-100.00,North,357,7.0,14.0,60,0.00,,,0.00,483.000000,,2013-08-26 16:59:00,
2013-08-26 13:06:00,75.0,60.0,-100.00,North,357,7.0,14.0,60,0.00,,,0.00,483.000000,,2013-08-26 17:06:00,
2013-08-26 13:12:00,75.0,60.0,-100.00,North,357,7.0,14.0,60,0.00,,,0.00,483.000000,,2013-08-26 17:12:00,
2013-08-26 13:43:00,78.0,62.0,-100.00,NNW,348,8.0,14.0,59,0.00,,,0.00,637.000000,,2013-08-26 17:43:00,
2013-08-26 13:53:00,78.0,62.0,-100.00,NNW,348,8.0,14.0,59,0.00,,,0.00,637.000000,,2013-08-26 17:53:00,
2013-08-26 14:02:00,78.0,62.0,-100.00,NNW,348,8.0,14.0,59,0.00,,,0.00,637.000000,,2013-08-26 18:02:00,
2013-08-26 14:12:00,78.0,62.0,-100.00,NNW,348,8.0,14.0,59,0.00,,,0.00,637.000000,,2013-08-26 18:12:00,
2013-08-26 14:42:00,81.0,62.0,-100.00,NW,318,8.0,17.0,53,0.00,,,0.00,743.000000,,2013-08-26 18:42:00,
2013-08-26 14:52:00,81.0,62.0,-100.00,NW,318,8.0,17.0,53,0.00,,,0.00,743.000000,,2013-08-26 18:52:00,
2013-08-26 15:02:00,81.0,62.0,-100.00,NW,318,8.0,17.0,53,0.00,,,0.00,743.000000,,2013-08-26 19:02:00,
2013-08-26 15:11:00,81.0,62.0,-100.00,NW,318,8.0,17.0,53,0.00,,,0.00,743.000000,,2013-08-26 19:11:00,
2013-08-26 15:42:00,79.0,59.0,-100.00,NNW,339,8.0,18.0,51,0.00,,,0.00,571.000000,,2013-08-26 19:42:00,
2013-08-26 15:52:00,79.0,59.0,-100.00,NNW,339,8.0,18.0,51,0.00,,,0.00,571.000000,,2013-08-26 19:52:00,
2013-08-26 16:02:00,79.0,59.0,-100.00,NNW,339,8.0,18.0,51,0.00,,,0.00,571.000000,,2013-08-26 20:02:00,
2013-08-26 16:11:00,79.0,59.0,-100.00,NNW,339,8.0,18.0,51,0.00,,,0.00,571.000000,,2013-08-26 20:11:00,
2013-08-26 16:43:00,79.0,60.0,-100.00,North,349,7.0,17.0,52,0.00,,,0.00,410.000000,,2013-08-26 20:43:00,
2013-08-26 16:52:00,79.0,60.0,-100.00,North,349,7.0,17.0,52,0.00,,,0.00,410.000000,,2013-08-26 20:52:00,
2013-08-26 17:02:00,79.0,60.0,-100.00,North,349,7.0,17.0,52,0.00,,,0.00,410.000000,,2013-08-26 21:02:00,
2013-08-26 17:12:00,79.0,60.0,-100.00,North,349,7.0,17.0,52,0.00,,,0.00,410.000000,,2013-08-26 21:12:00,
2013-08-26 17:16:00,78.0,59.0,-100.00,North,355,7.0,15.0,52,0.00,,,0.00,306.000000,,2013-08-26 21:16:00,
2013-08-26 17:44:00,78.0,59.0,-100.00,North,355,7.0,15.0,52,0.00,,,0.00,306.000000,,2013-08-26 21:44:00,
2013-08-26 17:55:00,78.0,59.0,-100.00,North,355,7.0,15.0,52,0.00,,,0.00,306.000000,,2013-08-26 21:55:00,
2013-08-26 18:07:00,78.0,59.0,-100.00,North,355,7.0,15.0,52,0.00,,,0.00,306.000000,,2013-08-26 22:07:00,
2013-08-26 18:42:00,77.0,62.0,-100.00,North,349,7.0,15.0,60,0.00,,,0.00,175.000000,,2013-08-26 22:42:00,
2013-08-26 18:53:00,77.0,62.0,-100.00,North,349,7.0,15.0,60,0.00,,,0.00,175.000000,,2013-08-26 22:53:00,
2013-08-26 19:03:00,77.0,62.0,-100.00,North,349,7.0,15.0,60,0.00,,,0.00,175.000000,,2013-08-26 23:03:00,
2013-08-26 19:13:00,77.0,62.0,-100.00,North,349,7.0,15.0,60,0.00,,,0.00,175.000000,,2013-08-26 23:13:00,
2013-08-26 19:42:00,74.0,61.0,-100.00,North,359,7.0,15.0,64,0.00,,,0.00,74.000000,,2013-08-26 23:42:00,
2013-08-26 19:52:00,74.0,61.0,-100.00,North,359,7.0,15.0,64,0.00,,,0.00,74.000000,,2013-08-26 23:52:00,
2013-08-26 20:01:00,74.0,61.0,-100.00,North,359,7.0,15.0,64,0.00,,,0.00,74.000000,,2013-08-27 00:01:00,
2013-08-26 20:11:00,74.0,61.0,-100.00,North,359,7.0,15.0,64,0.00,,,0.00,74.000000,,2013-08-27 00:11:00,
2013-08-26 20:42:00,72.0,60.0,-100.00,North,2,9.0,17.0,66,0.00,,,0.00,4.000000,,2013-08-27 00:42:00,
2013-08-26 20:52:00,72.0,60.0,-100.00,North,2,9.0,17.0,66,0.00,,,0.00,4.000000,,2013-08-27 00:52:00,
2013-08-26 21:02:00,72.0,60.0,-100.00,North,2,9.0,17.0,66,0.00,,,0.00,4.000000,,2013-08-27 01:02:00,
2013-08-26 21:12:00,72.0,60.0,-100.00,North,2,9.0,17.0,66,0.00,,,0.00,4.000000,,2013-08-27 01:12:00,
2013-08-26 21:42:00,67.0,63.0,-100.00,North,356,8.0,17.0,87,0.06,,,0.06,0.000000,,2013-08-27 01:42:00,
2013-08-26 21:52:00,67.0,63.0,-100.00,North,356,8.0,17.0,87,0.06,,,0.06,0.000000,,2013-08-27 01:52:00,
2013-08-26 22:02:00,67.0,63.0,-100.00,North,356,8.0,17.0,87,0.06,,,0.06,0.000000,,2013-08-27 02:02:00,
2013-08-26 22:12:00,67.0,63.0,-100.00,North,356,8.0,17.0,87,0.06,,,0.06,0.000000,,2013-08-27 02:12:00,
2013-08-26 22:43:00,66.0,64.0,-100.00,North,6,9.0,16.0,92,0.06,,,0.12,0.000000,,2013-08-27 02:43:00,
2013-08-26 22:52:00,66.0,64.0,-100.00,North,6,9.0,16.0,92,0.06,,,0.12,0.000000,,2013-08-27 02:52:00,
2013-08-26 23:02:00,66.0,64.0,-100.00,North,6,9.0,16.0,92,0.06,,,0.12,0.000000,,2013-08-27 03:02:00,
2013-08-26 23:12:00,66.0,64.0,-100.00,North,6,9.0,16.0,92,0.06,,,0.12,0.000000,,2013-08-27 03:12:00,
2013-08-26 23:16:00,65.0,63.0,-100.00,North,6,7.0,16.0,94,0.03,,,0.15,0.000000,,2013-08-27 03:16:00,
2013-08-26 23:45:00,65.0,63.0,-100.00,North,6,7.0,16.0,94,0.03,,,0.15,0.000000,,2013-08-27 03:45:00,
2013-08-26 23:58:00,65.0,63.0,-100.00,North,6,7.0,16.0,94,0.03,,,0.15,0.000000,,2013-08-27 03:58:00,